createdAt,value
2022-12-18T00:01:28.706Z,95.40
2022-12-18T00:04:39.397Z,92.85
2022-12-18T00:07:50.428Z,82.13
2022-12-18T00:10:59.572Z,93.95
2022-12-18T00:14:06.354Z,77.05
2022-12-18T00:17:11.882Z,83.30
2022-12-18T00:20:25.481Z,83.85
2022-12-18T00:23:30.583Z,81.85
2022-12-18T00:27:03.213Z,82.05
2022-12-18T00:30:10.473Z,88.30
2022-12-18T00:33:20.113Z,129.00
2022-12-18T00:36:31.732Z,92.05
2022-12-18T00:39:38.197Z,78.57
2022-12-18T00:43:01.130Z,84.57
2022-12-18T00:46:07.336Z,100.53
2022-12-18T00:49:17.130Z,79.68
2022-12-18T00:52:25.264Z,87.47
2022-12-18T00:55:31.008Z,89.43
2022-12-18T00:58:53.797Z,80.70
2022-12-18T01:02:02.607Z,81.68
2022-12-18T01:05:12.472Z,94.22
2022-12-18T01:08:20.332Z,106.78
2022-12-18T01:11:26.482Z,95.25
2022-12-18T01:14:39.066Z,127.00
2022-12-18T01:17:49.518Z,108.72
2022-12-18T01:20:59.313Z,108.10
2022-12-18T01:24:15.093Z,115.18
2022-12-18T01:27:24.754Z,92.82
2022-12-18T01:30:33.547Z,101.10
2022-12-18T01:33:46.466Z,123.55
2022-12-18T01:36:53.146Z,95.20
2022-12-18T01:40:00.911Z,89.72
2022-12-18T01:43:11.531Z,112.55
2022-12-18T01:46:31.760Z,109.85
2022-12-18T01:49:38.995Z,116.85
2022-12-18T01:52:53.985Z,58.95
2022-12-18T01:56:00.565Z,80.15
2022-12-18T01:59:13.862Z,71.20
2022-12-18T02:02:20.591Z,59.60
2022-12-18T02:05:39.522Z,81.35
2022-12-18T02:08:58.864Z,73.20
2022-12-18T02:12:20.896Z,58.50
2022-12-18T02:15:35.660Z,68.32
2022-12-18T02:18:53.723Z,61.50
2022-12-18T02:25:47.217Z,50.13
2022-12-18T02:28:58.582Z,83.85
2022-12-18T02:32:15.829Z,87.60
2022-12-18T02:35:38.034Z,79.38
2022-12-18T02:38:48.886Z,60.42
2022-12-18T02:42:03.424Z,53.03
2022-12-18T02:45:10.395Z,68.55
2022-12-18T02:48:21.745Z,75.28
2022-12-18T02:51:41.404Z,60.10
2022-12-18T02:54:59.863Z,73.13
2022-12-18T02:58:10.791Z,75.82
2022-12-18T03:01:30.896Z,78.35
2022-12-18T03:04:52.461Z,59.63
2022-12-18T03:08:06.273Z,67.97
2022-12-18T03:11:16.168Z,64.25
2022-12-18T03:14:29.487Z,77.68
2022-12-18T03:17:48.852Z,71.55
2022-12-18T03:21:04.291Z,79.10
2022-12-18T03:24:19.005Z,82.35
2022-12-18T03:27:27.139Z,69.22
2022-12-18T03:30:48.116Z,67.75
2022-12-18T03:34:08.191Z,68.32
2022-12-18T03:40:40.919Z,61.25
2022-12-18T03:43:51.599Z,67.40
2022-12-18T03:47:10.092Z,50.05
2022-12-18T03:54:35.012Z,76.53
2022-12-18T03:57:54.673Z,70.43
2022-12-18T04:01:04.248Z,80.57
2022-12-18T04:04:20.966Z,85.07
2022-12-18T04:07:52.875Z,80.07
2022-12-18T04:10:57.042Z,78.40
2022-12-18T04:14:07.222Z,86.72
2022-12-18T04:17:25.087Z,88.25
2022-12-18T04:20:40.127Z,75.05
2022-12-18T04:24:09.306Z,79.18
2022-12-18T04:27:17.481Z,82.32
2022-12-18T04:30:31.259Z,77.72
2022-12-18T04:34:53.615Z,82.90
2022-12-18T04:38:09.020Z,82.35
2022-12-18T04:41:16.475Z,77.60
2022-12-18T04:44:27.490Z,85.07
2022-12-18T04:47:47.468Z,70.15
2022-12-18T04:51:06.104Z,72.20
2022-12-18T04:54:12.590Z,76.82
2022-12-18T04:57:19.452Z,78.65
2022-12-18T05:00:33.346Z,78.10
2022-12-18T05:03:39.324Z,62.45
2022-12-18T05:06:54.703Z,51.10
2022-12-18T05:10:10.933Z,55.75
2022-12-18T05:13:23.782Z,55.92
2022-12-18T05:16:40.182Z,62.67
2022-12-18T05:19:55.337Z,44.90
2022-12-18T05:23:14.595Z,41.67
2022-12-18T05:26:24.906Z,63.88
2022-12-18T05:29:38.652Z,52.17
2022-12-18T05:32:45.426Z,45.20
2022-12-18T05:35:59.694Z,54.30
2022-12-18T05:39:11.511Z,53.00
2022-12-18T05:42:22.273Z,56.20
2022-12-18T05:45:27.938Z,59.60
2022-12-18T05:48:31.929Z,58.53
2022-12-18T05:51:46.991Z,57.42
2022-12-18T05:54:59.947Z,44.28
2022-12-18T05:58:16.371Z,58.17
2022-12-18T06:01:34.030Z,46.78
2022-12-18T06:04:45.017Z,39.72
2022-12-18T06:07:53.862Z,51.63
2022-12-18T06:10:59.044Z,51.80
2022-12-18T06:14:06.585Z,35.83
2022-12-18T06:17:17.720Z,60.63
2022-12-18T06:20:29.169Z,32.33
2022-12-18T06:23:44.681Z,61.67
2022-12-18T06:26:51.771Z,49.78
2022-12-18T06:30:01.182Z,37.53
2022-12-18T06:33:09.842Z,49.15
2022-12-18T06:36:17.056Z,49.30
2022-12-18T06:39:48.637Z,50.20
2022-12-18T06:43:01.475Z,34.72
2022-12-18T06:46:25.239Z,46.88
2022-12-18T06:49:37.003Z,33.40
2022-12-18T06:52:48.388Z,39.95
2022-12-18T06:55:55.626Z,52.15
2022-12-18T07:02:13.879Z,50.20
2022-12-18T07:05:35.467Z,32.30
2022-12-18T07:08:43.820Z,35.55
2022-12-18T07:11:50.560Z,37.43
2022-12-18T07:15:05.307Z,31.05
2022-12-18T07:18:15.857Z,37.60
2022-12-18T07:21:42.679Z,24.98
2022-12-18T07:24:52.338Z,34.05
2022-12-18T07:28:00.333Z,33.80
2022-12-18T07:31:17.224Z,16.67
2022-12-18T07:34:31.966Z,35.10
2022-12-18T07:37:42.708Z,30.38
2022-12-18T07:40:46.713Z,37.63
2022-12-18T07:43:54.471Z,33.20
2022-12-18T07:47:12.219Z,42.40
2022-12-18T07:50:21.964Z,38.47
2022-12-18T07:53:33.642Z,41.20
2022-12-18T07:56:41.175Z,45.25
2022-12-18T07:59:55.082Z,42.55
2022-12-18T08:03:13.525Z,31.70
2022-12-18T08:06:31.479Z,35.35
2022-12-18T08:09:43.439Z,36.03
2022-12-18T08:13:03.131Z,34.65
2022-12-18T08:16:14.050Z,34.60
2022-12-18T08:19:23.212Z,28.70
2022-12-18T08:22:39.014Z,36.08
2022-12-18T08:25:55.993Z,41.10
2022-12-18T08:29:21.227Z,32.30
2022-12-18T08:32:26.448Z,21.15
2022-12-18T08:35:45.837Z,32.60
2022-12-18T08:38:50.794Z,29.95
2022-12-18T08:42:16.807Z,37.22
2022-12-18T08:45:22.100Z,32.72
2022-12-18T08:48:31.269Z,37.33
2022-12-18T08:51:46.706Z,24.70
2022-12-18T08:55:00.088Z,40.97
2022-12-18T08:58:14.084Z,28.63
2022-12-18T09:01:23.167Z,52.67
2022-12-18T09:04:35.279Z,39.90
2022-12-18T09:07:43.917Z,25.88
2022-12-18T09:10:52.394Z,32.07
2022-12-18T09:14:03.540Z,25.70
2022-12-18T09:17:08.649Z,35.60
2022-12-18T09:20:12.743Z,27.80
2022-12-18T09:23:18.557Z,28.70
2022-12-18T09:26:22.633Z,28.02
2022-12-18T09:29:26.081Z,16.58
2022-12-18T09:32:31.447Z,26.60
2022-12-18T09:35:38.211Z,35.53
2022-12-18T09:38:43.537Z,29.95
2022-12-18T09:41:54.515Z,22.67
2022-12-18T09:45:05.392Z,33.35
2022-12-18T09:48:16.649Z,40.15
2022-12-18T09:51:26.807Z,23.45
2022-12-18T09:54:38.357Z,36.10
2022-12-18T09:57:51.989Z,31.70
2022-12-18T10:01:01.474Z,28.23
2022-12-18T10:04:11.542Z,29.40
2022-12-18T10:07:31.025Z,30.08
2022-12-18T10:10:51.101Z,30.23
2022-12-18T10:14:20.171Z,30.02
2022-12-18T10:17:32.206Z,68.25
2022-12-18T10:20:44.860Z,46.03
2022-12-18T10:23:59.856Z,28.73
2022-12-18T10:27:17.005Z,34.95
2022-12-18T10:30:25.627Z,29.05
2022-12-18T10:34:46.761Z,34.92
2022-12-18T10:38:10.216Z,30.55
2022-12-18T10:41:29.242Z,32.03
2022-12-18T10:44:42.961Z,39.15
2022-12-18T10:47:49.512Z,38.72
2022-12-18T10:51:12.580Z,36.30
2022-12-18T10:54:19.083Z,33.83
2022-12-18T10:57:36.278Z,32.80
2022-12-18T11:00:40.465Z,34.53
2022-12-18T11:03:46.386Z,40.17
2022-12-18T11:07:00.505Z,37.42
2022-12-18T11:10:07.824Z,33.65
2022-12-18T11:16:21.437Z,37.95
2022-12-18T11:19:34.245Z,34.58
2022-12-18T11:22:40.392Z,30.40
2022-12-18T11:25:56.739Z,35.20
2022-12-18T11:29:11.036Z,32.60
2022-12-18T11:32:32.147Z,32.08
2022-12-18T11:35:48.173Z,35.35
2022-12-18T11:39:01.312Z,31.30
2022-12-18T11:42:17.325Z,42.50
2022-12-18T11:45:35.535Z,42.25
2022-12-18T11:48:46.704Z,34.95
2022-12-18T11:51:54.985Z,27.50
2022-12-18T11:55:03.490Z,35.45
2022-12-18T11:58:19.031Z,33.58
2022-12-18T12:01:44.965Z,30.35
2022-12-18T12:05:03.289Z,28.58
2022-12-18T12:08:18.439Z,28.42
2022-12-18T12:11:31.213Z,33.47
2022-12-18T12:14:49.497Z,37.92
2022-12-18T12:17:58.204Z,29.63
2022-12-18T12:21:52.473Z,34.03
2022-12-18T12:25:10.641Z,34.38
2022-12-18T12:28:30.786Z,29.73
2022-12-18T12:31:49.950Z,25.48
2022-12-18T12:35:11.862Z,26.92
2022-12-18T12:38:20.851Z,28.25
2022-12-18T12:41:45.667Z,36.88
2022-12-18T12:44:57.647Z,33.95
2022-12-18T12:48:04.622Z,31.27
2022-12-18T12:51:25.011Z,27.05
2022-12-18T12:54:37.875Z,22.15
2022-12-18T12:58:08.895Z,30.77
2022-12-18T13:01:24.139Z,35.33
2022-12-18T13:04:37.807Z,29.90
2022-12-18T13:07:48.199Z,32.75
2022-12-18T13:11:12.390Z,36.95
2022-12-18T13:14:26.206Z,40.33
2022-12-18T13:17:35.292Z,27.98
2022-12-18T13:20:42.100Z,34.00
2022-12-18T13:24:02.520Z,36.72
2022-12-18T13:28:04.408Z,33.45
2022-12-18T13:31:11.261Z,36.13
2022-12-18T13:34:26.763Z,29.33
2022-12-18T13:38:06.919Z,35.47
2022-12-18T13:41:30.177Z,32.22
2022-12-18T13:44:42.063Z,32.33
2022-12-18T13:47:46.223Z,29.77
2022-12-18T13:51:12.711Z,33.28
2022-12-18T13:54:29.566Z,32.67
2022-12-18T13:57:41.933Z,35.27
2022-12-18T14:00:52.840Z,31.77
2022-12-18T14:04:15.121Z,38.22
2022-12-18T14:07:27.184Z,40.40
2022-12-18T14:10:49.176Z,33.38
2022-12-18T14:13:59.103Z,38.90
2022-12-18T14:17:14.688Z,31.77
2022-12-18T14:20:33.795Z,33.90
2022-12-18T14:23:55.368Z,30.80
2022-12-18T14:27:22.156Z,35.60
2022-12-18T14:30:53.978Z,38.63
2022-12-18T14:37:09.049Z,37.33
2022-12-18T14:40:18.857Z,35.42
2022-12-18T14:43:32.183Z,35.33
2022-12-18T14:46:45.046Z,33.65
2022-12-18T14:49:59.585Z,33.33
2022-12-18T14:53:25.421Z,37.92
2022-12-18T14:56:51.914Z,38.05
2022-12-18T15:00:09.776Z,44.25
2022-12-18T15:03:27.759Z,51.55
2022-12-18T15:06:49.840Z,68.82
2022-12-18T15:10:14.496Z,43.38
2022-12-18T15:13:28.864Z,44.40
2022-12-18T15:16:46.001Z,33.78
2022-12-18T15:20:12.288Z,37.00
2022-12-18T15:23:51.446Z,41.45
2022-12-18T15:27:06.080Z,33.88
2022-12-18T15:30:25.081Z,37.80
2022-12-18T15:33:43.065Z,39.22
2022-12-18T15:37:12.843Z,36.45
2022-12-18T15:40:24.965Z,35.63
2022-12-18T15:43:36.707Z,33.95
2022-12-18T15:46:45.792Z,34.63
2022-12-18T15:49:52.402Z,35.08
2022-12-18T15:53:05.828Z,27.17
2022-12-18T15:56:32.965Z,27.02
2022-12-18T15:59:40.092Z,38.17
2022-12-18T16:03:03.182Z,31.37
2022-12-18T16:06:12.850Z,40.38
2022-12-18T16:09:48.881Z,56.38
2022-12-18T16:12:56.709Z,49.33
2022-12-18T16:16:03.116Z,38.00
2022-12-18T16:19:24.730Z,44.03
2022-12-18T16:22:32.587Z,40.67
2022-12-18T16:25:43.484Z,60.00
2022-12-18T16:29:03.147Z,55.22
2022-12-18T16:34:53.582Z,40.70
2022-12-18T16:38:02.984Z,45.22
2022-12-18T16:41:42.880Z,46.15
2022-12-18T16:45:04.051Z,36.38
2022-12-18T16:48:12.949Z,46.47
2022-12-18T16:51:23.220Z,43.10
2022-12-18T16:54:33.681Z,47.65
2022-12-18T16:57:47.362Z,44.13
2022-12-18T17:00:52.452Z,40.60
2022-12-18T17:04:10.855Z,48.10
2022-12-18T17:07:20.963Z,48.75
2022-12-18T17:10:26.484Z,42.20
2022-12-18T17:13:32.370Z,43.88
2022-12-18T17:16:40.079Z,53.92
2022-12-18T17:19:46.851Z,35.47
2022-12-18T17:23:22.686Z,44.50
2022-12-18T17:26:50.675Z,50.60
2022-12-18T17:30:08.169Z,43.30
2022-12-18T17:33:14.925Z,49.90
2022-12-18T17:36:21.321Z,30.10
2022-12-18T17:39:44.907Z,49.88
2022-12-18T17:42:57.864Z,48.00
2022-12-18T17:46:23.962Z,57.95
2022-12-18T17:49:33.390Z,51.17
2022-12-18T17:53:11.095Z,59.38
2022-12-18T17:56:29.072Z,65.00
2022-12-18T18:03:15.988Z,48.35
2022-12-18T18:06:25.082Z,45.88
2022-12-18T18:09:34.198Z,43.85
2022-12-18T18:12:59.926Z,52.90
2022-12-18T18:16:07.484Z,43.70
2022-12-18T18:19:25.254Z,49.88
2022-12-18T18:22:37.092Z,47.20
2022-12-18T18:25:46.736Z,47.78
2022-12-18T18:28:54.994Z,61.33
2022-12-18T18:32:01.052Z,51.65
2022-12-18T18:35:52.439Z,42.40
2022-12-18T18:39:06.645Z,35.00
2022-12-18T18:42:28.377Z,46.25
2022-12-18T18:45:43.116Z,56.70
2022-12-18T18:49:00.316Z,57.78
2022-12-18T18:52:07.158Z,48.17
2022-12-18T18:55:25.582Z,50.78
2022-12-18T18:58:38.716Z,50.35
2022-12-18T19:02:09.550Z,53.88
2022-12-18T19:05:17.474Z,48.90
2022-12-18T19:08:40.386Z,59.55
2022-12-18T19:12:07.048Z,41.17
2022-12-18T19:15:13.940Z,54.28
2022-12-18T19:18:36.344Z,48.70
2022-12-18T19:21:43.252Z,45.75
2022-12-18T19:24:52.137Z,55.55
2022-12-18T19:28:22.031Z,50.35
2022-12-18T19:31:35.917Z,46.22
2022-12-18T19:34:44.040Z,43.15
2022-12-18T19:38:02.106Z,41.55
2022-12-18T19:41:09.986Z,55.67
2022-12-18T19:44:16.907Z,48.78
2022-12-18T19:47:45.557Z,50.30
2022-12-18T19:51:08.687Z,48.50
2022-12-18T19:54:17.737Z,49.65
2022-12-18T19:57:34.151Z,46.00
2022-12-18T20:00:39.475Z,43.03
2022-12-18T20:03:52.772Z,48.83
2022-12-18T20:07:00.292Z,50.13
2022-12-18T20:10:10.521Z,42.42
2022-12-18T20:13:18.712Z,54.58
2022-12-18T20:20:53.068Z,56.90
2022-12-18T20:24:16.312Z,44.00
2022-12-18T20:27:40.871Z,38.25
2022-12-18T20:30:46.696Z,47.88
2022-12-18T20:34:00.266Z,56.75
2022-12-18T20:37:08.821Z,37.50
2022-12-18T20:40:17.867Z,52.00
2022-12-18T20:43:21.709Z,39.88
2022-12-18T20:46:25.676Z,44.55
2022-12-18T20:49:29.756Z,12.98
2022-12-18T20:52:36.714Z,9.17
2022-12-18T20:55:44.700Z,3.67
2022-12-18T20:58:48.407Z,15.77
2022-12-18T21:01:52.580Z,38.58
2022-12-18T21:05:00.345Z,46.85
2022-12-18T21:08:06.881Z,42.35
2022-12-18T21:11:33.670Z,30.73
2022-12-18T21:14:37.573Z,39.03
2022-12-18T21:17:45.016Z,32.45
2022-12-18T21:23:52.339Z,49.03
2022-12-18T21:27:02.113Z,26.48
2022-12-18T21:30:20.809Z,35.60
2022-12-18T21:33:25.864Z,40.10
2022-12-18T21:36:29.352Z,32.35
2022-12-18T21:39:35.224Z,41.92
2022-12-18T21:42:58.590Z,16.10
2022-12-18T21:46:06.881Z,38.85
2022-12-18T21:49:14.719Z,13.30
2022-12-18T21:52:26.295Z,36.17
2022-12-18T21:55:36.633Z,47.30
2022-12-18T21:58:55.611Z,50.38
2022-12-18T22:02:02.915Z,44.95
2022-12-18T22:08:17.747Z,41.63
2022-12-18T22:11:21.088Z,35.33
2022-12-18T22:14:30.520Z,49.28
2022-12-18T22:17:35.007Z,35.53
2022-12-18T22:20:38.918Z,36.28
2022-12-18T22:23:54.188Z,33.10
2022-12-18T22:27:02.007Z,46.25
2022-12-18T22:30:14.472Z,39.60
2022-12-18T22:34:45.476Z,21.13
2022-12-18T22:37:48.989Z,39.75
2022-12-18T22:40:58.213Z,37.13
2022-12-18T22:44:07.566Z,31.55
2022-12-18T22:50:26.241Z,83.07
2022-12-18T22:53:30.295Z,52.13
2022-12-18T22:56:34.842Z,48.83
2022-12-18T22:59:39.740Z,49.00
2022-12-18T23:02:45.174Z,56.83
2022-12-18T23:05:53.828Z,56.67
2022-12-18T23:09:00.019Z,54.45
2022-12-18T23:12:04.122Z,36.05
2022-12-18T23:15:08.191Z,35.90
2022-12-18T23:18:12.164Z,38.90
2022-12-18T23:21:20.308Z,42.83
2022-12-18T23:24:25.385Z,32.00
2022-12-18T23:27:29.747Z,29.80
2022-12-18T23:30:39.474Z,42.83
2022-12-18T23:33:43.437Z,33.33
2022-12-18T23:36:53.234Z,29.80
2022-12-18T23:39:59.293Z,32.45
2022-12-18T23:43:02.921Z,41.20
2022-12-18T23:46:13.451Z,42.20
2022-12-18T23:49:17.903Z,44.03
2022-12-18T23:52:24.842Z,37.20
2022-12-18T23:55:29.732Z,43.78
2022-12-18T23:58:34.215Z,39.10
